Terminal Aerodrome Forecast
Issued by NWS

Home | Current Version | Previous Version | Text Only | Print | Product List | Glossary On
Versions: 1 2 3 4 5 6 7 8 9 10 11 12 13 14 15 16 17
372
FTUS43 KILX 201519 AAB
TAFBMI
TAF AMD
KBMI 201519Z 2015/2112 18007KT P6SM SCT050 BKN120
     FM201900 18006KT P6SM VCSH SCT060 BKN120
      TEMPO 2019/2022 BKN060
     FM202200 14007KT P6SM BKN070=

USA.gov is the U.S. government's official web portal to all federal, state and local government web resources and services.